Terminal Aerodrome Forecast
Issued by NWS

Home | Current Version | Previous Version | Graphics & Text | Print | Product List | Glossary On
Versions: 1 2 3 4 5 6 7 8 9 10 11 12 13
000
FTUS43 KOAX 192300
TAFCDR
TAF
KCDR 192337Z 2000/2024 22008KT P6SM FEW250
     FM200300 VRB05KT P6SM SKC
     FM201700 27008KT P6SM SKC=

USA.gov is the U.S. government's official web portal to all federal, state and local government web resources and services.